sensor_id;sensor_type;location;lat;lon;timestamp;temperature;humidity
6824;DHT22;58633;49.470;11.004;2023-07-13T00:01:29;23.10;55.80
6824;DHT22;58633;49.470;11.004;2023-07-13T00:06:21;23.10;54.70
6824;DHT22;58633;49.470;11.004;2023-07-13T00:08:47;22.90;55.00
6824;DHT22;58633;49.470;11.004;2023-07-13T00:11:14;22.90;55.20
6824;DHT22;58633;49.470;11.004;2023-07-13T00:13:41;22.90;55.40
6824;DHT22;58633;49.470;11.004;2023-07-13T00:16:09;23.10;55.30
6824;DHT22;58633;49.470;11.004;2023-07-13T00:18:35;22.90;55.40
6824;DHT22;58633;49.470;11.004;2023-07-13T00:21:01;22.90;54.60
6824;DHT22;58633;49.470;11.004;2023-07-13T00:23:39;24.40;56.50
6824;DHT22;58633;49.470;11.004;2023-07-13T00:26:07;22.90;56.00
6824;DHT22;58633;49.470;11.004;2023-07-13T00:31:00;22.90;54.80
6824;DHT22;58633;49.470;11.004;2023-07-13T00:33:28;22.90;54.50
6824;DHT22;58633;49.470;11.004;2023-07-13T00:35:55;22.90;55.00
6824;DHT22;58633;49.470;11.004;2023-07-13T00:38:21;22.90;54.90
6824;DHT22;58633;49.470;11.004;2023-07-13T00:40:47;22.90;55.40
6824;DHT22;58633;49.470;11.004;2023-07-13T00:43:19;22.90;55.80
6824;DHT22;58633;49.470;11.004;2023-07-13T00:48:14;23.00;55.20
6824;DHT22;58633;49.470;11.004;2023-07-13T00:50:41;23.00;55.10
6824;DHT22;58633;49.470;11.004;2023-07-13T00:55:35;22.70;54.50
6824;DHT22;58633;49.470;11.004;2023-07-13T00:58:01;22.80;55.00
6824;DHT22;58633;49.470;11.004;2023-07-13T01:00:29;22.60;55.20
6824;DHT22;58633;49.470;11.004;2023-07-13T01:02:55;22.60;56.10
6824;DHT22;58633;49.470;11.004;2023-07-13T01:05:22;22.60;55.10
6824;DHT22;58633;49.470;11.004;2023-07-13T01:07:50;22.60;55.00
6824;DHT22;58633;49.470;11.004;2023-07-13T01:10:21;22.40;54.70
6824;DHT22;58633;49.470;11.004;2023-07-13T01:12:47;22.60;55.30
6824;DHT22;58633;49.470;11.004;2023-07-13T01:15:39;22.50;55.20
6824;DHT22;58633;49.470;11.004;2023-07-13T01:18:10;22.40;55.40
6824;DHT22;58633;49.470;11.004;2023-07-13T01:20:36;22.50;56.00
6824;DHT22;58633;49.470;11.004;2023-07-13T01:23:07;22.40;55.20
6824;DHT22;58633;49.470;11.004;2023-07-13T01:25:35;22.20;55.50
6824;DHT22;58633;49.470;11.004;2023-07-13T01:28:06;22.00;54.70
6824;DHT22;58633;49.470;11.004;2023-07-13T01:30:32;21.90;55.10
6824;DHT22;58633;49.470;11.004;2023-07-13T01:32:58;22.00;55.50
6824;DHT22;58633;49.470;11.004;2023-07-13T01:35:24;22.00;55.40
6824;DHT22;58633;49.470;11.004;2023-07-13T01:40:18;21.80;55.10
6824;DHT22;58633;49.470;11.004;2023-07-13T01:45:09;21.90;54.80
6824;DHT22;58633;49.470;11.004;2023-07-13T01:47:35;22.00;55.00
6824;DHT22;58633;49.470;11.004;2023-07-13T01:50:01;21.80;54.80
6824;DHT22;58633;49.470;11.004;2023-07-13T01:52:26;21.80;54.90
6824;DHT22;58633;49.470;11.004;2023-07-13T01:54:52;21.90;54.90
6824;DHT22;58633;49.470;11.004;2023-07-13T01:59:43;21.70;55.20
6824;DHT22;58633;49.470;11.004;2023-07-13T02:02:08;21.50;55.20
6824;DHT22;58633;49.470;11.004;2023-07-13T02:04:35;21.60;55.40
6824;DHT22;58633;49.470;11.004;2023-07-13T02:14:19;21.50;55.60
6824;DHT22;58633;49.470;11.004;2023-07-13T02:19:10;21.20;55.80
6824;DHT22;58633;49.470;11.004;2023-07-13T02:24:02;21.20;55.70
6824;DHT22;58633;49.470;11.004;2023-07-13T02:33:45;21.00;55.50
6824;DHT22;58633;49.470;11.004;2023-07-13T02:36:12;21.00;55.80
6824;DHT22;58633;49.470;11.004;2023-07-13T02:41:06;20.70;55.90
6824;DHT22;58633;49.470;11.004;2023-07-13T02:43:32;20.70;55.70
6824;DHT22;58633;49.470;11.004;2023-07-13T02:45:59;20.70;55.50
6824;DHT22;58633;49.470;11.004;2023-07-13T02:48:33;20.70;55.60
6824;DHT22;58633;49.470;11.004;2023-07-13T03:00:44;20.50;55.90
6824;DHT22;58633;49.470;11.004;2023-07-13T03:03:12;20.40;55.50
6824;DHT22;58633;49.470;11.004;2023-07-13T03:05:39;20.60;56.70
6824;DHT22;58633;49.470;11.004;2023-07-13T03:08:05;20.40;55.70
6824;DHT22;58633;49.470;11.004;2023-07-13T03:10:31;20.20;55.70
6824;DHT22;58633;49.470;11.004;2023-07-13T03:12:57;20.40;56.30
6824;DHT22;58633;49.470;11.004;2023-07-13T03:17:48;20.30;56.40
6824;DHT22;58633;49.470;11.004;2023-07-13T03:20:15;20.30;56.30
6824;DHT22;58633;49.470;11.004;2023-07-13T03:22:40;20.30;56.70
6824;DHT22;58633;49.470;11.004;2023-07-13T03:25:07;20.20;56.60
6824;DHT22;58633;49.470;11.004;2023-07-13T03:27:33;20.00;56.10
6824;DHT22;58633;49.470;11.004;2023-07-13T03:29:58;20.10;56.70
6824;DHT22;58633;49.470;11.004;2023-07-13T03:32:24;20.00;56.80
6824;DHT22;58633;49.470;11.004;2023-07-13T03:34:49;19.90;56.90
6824;DHT22;58633;49.470;11.004;2023-07-13T03:37:15;20.00;56.30
6824;DHT22;58633;49.470;11.004;2023-07-13T03:39:40;19.90;55.90
6824;DHT22;58633;49.470;11.004;2023-07-13T03:42:07;19.80;55.90
6824;DHT22;58633;49.470;11.004;2023-07-13T03:44:32;19.90;56.50
6824;DHT22;58633;49.470;11.004;2023-07-13T03:46:58;19.60;55.70
6824;DHT22;58633;49.470;11.004;2023-07-13T03:49:23;19.70;56.30
6824;DHT22;58633;49.470;11.004;2023-07-13T03:54:15;19.80;56.10
6824;DHT22;58633;49.470;11.004;2023-07-13T03:56:41;19.70;55.60
6824;DHT22;58633;49.470;11.004;2023-07-13T03:59:06;19.80;56.20
6824;DHT22;58633;49.470;11.004;2023-07-13T04:03:58;19.70;55.60
6824;DHT22;58633;49.470;11.004;2023-07-13T04:06:28;19.70;55.60
6824;DHT22;58633;49.470;11.004;2023-07-13T04:08:57;19.70;55.60
6824;DHT22;58633;49.470;11.004;2023-07-13T04:11:24;19.70;55.60
6824;DHT22;58633;49.470;11.004;2023-07-13T04:16:17;19.60;55.60
6824;DHT22;58633;49.470;11.004;2023-07-13T04:18:44;19.60;55.60
6824;DHT22;58633;49.470;11.004;2023-07-13T04:21:10;19.40;55.30
6824;DHT22;58633;49.470;11.004;2023-07-13T04:23:37;19.50;55.60
6824;DHT22;58633;49.470;11.004;2023-07-13T04:28:29;19.70;55.70
6824;DHT22;58633;49.470;11.004;2023-07-13T04:35:49;19.60;55.60
6824;DHT22;58633;49.470;11.004;2023-07-13T04:40:44;19.60;55.80
6824;DHT22;58633;49.470;11.004;2023-07-13T04:45:36;19.70;55.70
6824;DHT22;58633;49.470;11.004;2023-07-13T04:48:02;19.70;55.60
6824;DHT22;58633;49.470;11.004;2023-07-13T04:50:27;19.60;56.00
6824;DHT22;58633;49.470;11.004;2023-07-13T04:52:53;19.60;55.90
6824;DHT22;58633;49.470;11.004;2023-07-13T04:55:19;19.60;55.40
6824;DHT22;58633;49.470;11.004;2023-07-13T04:57:45;19.60;55.30
6824;DHT22;58633;49.470;11.004;2023-07-13T05:00:12;19.50;55.40
6824;DHT22;58633;49.470;11.004;2023-07-13T05:05:05;19.70;55.30
6824;DHT22;58633;49.470;11.004;2023-07-13T05:09:58;19.60;55.30
6824;DHT22;58633;49.470;11.004;2023-07-13T05:17:16;19.50;55.20
6824;DHT22;58633;49.470;11.004;2023-07-13T05:19:42;19.60;55.30
6824;DHT22;58633;49.470;11.004;2023-07-13T05:26:59;19.80;55.30
6824;DHT22;58633;49.470;11.004;2023-07-13T05:31:51;19.70;55.00
6824;DHT22;58633;49.470;11.004;2023-07-13T05:36:42;19.80;55.00
6824;DHT22;58633;49.470;11.004;2023-07-13T05:39:08;19.90;55.60
6824;DHT22;58633;49.470;11.004;2023-07-13T05:41:35;20.10;54.80
6824;DHT22;58633;49.470;11.004;2023-07-13T05:44:01;20.00;55.10
6824;DHT22;58633;49.470;11.004;2023-07-13T05:46:27;20.10;54.40
6824;DHT22;58633;49.470;11.004;2023-07-13T05:53:44;20.20;54.30
6824;DHT22;58633;49.470;11.004;2023-07-13T05:58:37;20.30;54.20
6824;DHT22;58633;49.470;11.004;2023-07-13T06:01:11;20.50;53.90
6824;DHT22;58633;49.470;11.004;2023-07-13T06:06:07;20.30;53.40
6824;DHT22;58633;49.470;11.004;2023-07-13T06:08:33;20.40;53.40
6824;DHT22;58633;49.470;11.004;2023-07-13T06:11:14;20.40;53.10
6824;DHT22;58633;49.470;11.004;2023-07-13T06:23:26;20.60;53.40
6824;DHT22;58633;49.470;11.004;2023-07-13T06:28:17;20.50;53.20
6824;DHT22;58633;49.470;11.004;2023-07-13T06:30:43;20.70;53.40
6824;DHT22;58633;49.470;11.004;2023-07-13T06:33:08;21.00;54.20
6824;DHT22;58633;49.470;11.004;2023-07-13T06:38:00;21.30;53.20
6824;DHT22;58633;49.470;11.004;2023-07-13T06:40:25;21.20;53.10
6824;DHT22;58633;49.470;11.004;2023-07-13T06:47:45;21.30;52.60
6824;DHT22;58633;49.470;11.004;2023-07-13T06:52:36;21.20;52.00
6824;DHT22;58633;49.470;11.004;2023-07-13T06:59:54;21.30;52.70
6824;DHT22;58633;49.470;11.004;2023-07-13T07:02:19;21.50;53.10
6824;DHT22;58633;49.470;11.004;2023-07-13T07:07:11;21.40;51.40
6824;DHT22;58633;49.470;11.004;2023-07-13T07:09:36;21.50;52.00
6824;DHT22;58633;49.470;11.004;2023-07-13T07:12:02;21.50;52.00
6824;DHT22;58633;49.470;11.004;2023-07-13T07:21:46;21.90;51.50
6824;DHT22;58633;49.470;11.004;2023-07-13T07:24:12;21.90;51.40
6824;DHT22;58633;49.470;11.004;2023-07-13T07:29:03;22.00;52.40
6824;DHT22;58633;49.470;11.004;2023-07-13T07:36:21;22.00;51.50
6824;DHT22;58633;49.470;11.004;2023-07-13T07:38:46;21.80;50.50
6824;DHT22;58633;49.470;11.004;2023-07-13T07:41:12;21.80;50.70
6824;DHT22;58633;49.470;11.004;2023-07-13T07:43:38;21.80;51.20
6824;DHT22;58633;49.470;11.004;2023-07-13T07:48:30;21.80;51.00
6824;DHT22;58633;49.470;11.004;2023-07-13T07:50:55;22.00;50.10
6824;DHT22;58633;49.470;11.004;2023-07-13T07:53:21;22.20;49.70
6824;DHT22;58633;49.470;11.004;2023-07-13T07:55:47;22.00;50.30
6824;DHT22;58633;49.470;11.004;2023-07-13T07:58:13;22.00;49.80
6824;DHT22;58633;49.470;11.004;2023-07-13T08:03:05;21.80;49.20
6824;DHT22;58633;49.470;11.004;2023-07-13T08:07:57;22.10;49.40
6824;DHT22;58633;49.470;11.004;2023-07-13T08:10:22;22.20;49.50
6824;DHT22;58633;49.470;11.004;2023-07-13T08:12:48;22.30;48.70
6824;DHT22;58633;49.470;11.004;2023-07-13T08:15:15;22.40;48.90
6824;DHT22;58633;49.470;11.004;2023-07-13T08:17:41;22.40;49.50
6824;DHT22;58633;49.470;11.004;2023-07-13T08:20:07;22.30;49.90
6824;DHT22;58633;49.470;11.004;2023-07-13T08:22:34;22.40;48.30
6824;DHT22;58633;49.470;11.004;2023-07-13T08:25:00;22.50;48.70
6824;DHT22;58633;49.470;11.004;2023-07-13T08:27:27;22.40;46.30
6824;DHT22;58633;49.470;11.004;2023-07-13T08:29:53;22.40;46.70
6824;DHT22;58633;49.470;11.004;2023-07-13T08:32:20;22.30;46.60
6824;DHT22;58633;49.470;11.004;2023-07-13T08:34:46;22.30;45.20
6824;DHT22;58633;49.470;11.004;2023-07-13T08:37:11;22.30;45.30
6824;DHT22;58633;49.470;11.004;2023-07-13T08:39:37;22.30;45.20
6824;DHT22;58633;49.470;11.004;2023-07-13T08:42:16;22.50;44.00
6824;DHT22;58633;49.470;11.004;2023-07-13T08:47:47;22.40;43.60
6824;DHT22;58633;49.470;11.004;2023-07-13T08:50:17;22.40;43.50
6824;DHT22;58633;49.470;11.004;2023-07-13T08:52:45;22.40;44.00
6824;DHT22;58633;49.470;11.004;2023-07-13T08:55:21;22.50;44.10
6824;DHT22;58633;49.470;11.004;2023-07-13T08:58:34;22.60;43.40
6824;DHT22;58633;49.470;11.004;2023-07-13T09:06:20;22.70;44.60
6824;DHT22;58633;49.470;11.004;2023-07-13T09:09:02;22.70;44.20
6824;DHT22;58633;49.470;11.004;2023-07-13T09:11:49;22.80;44.30
6824;DHT22;58633;49.470;11.004;2023-07-13T09:14:45;22.90;44.20
6824;DHT22;58633;49.470;11.004;2023-07-13T09:17:23;22.90;44.00
6824;DHT22;58633;49.470;11.004;2023-07-13T09:19:59;23.00;45.10
6824;DHT22;58633;49.470;11.004;2023-07-13T09:22:26;23.00;46.20
6824;DHT22;58633;49.470;11.004;2023-07-13T09:25:43;23.00;46.80
6824;DHT22;58633;49.470;11.004;2023-07-13T09:27:45;23.30;45.60
6824;DHT22;58633;49.470;11.004;2023-07-13T09:32:41;23.30;44.80
6824;DHT22;58633;49.470;11.004;2023-07-13T09:35:12;23.30;45.50
6824;DHT22;58633;49.470;11.004;2023-07-13T09:37:43;23.40;44.40
6824;DHT22;58633;49.470;11.004;2023-07-13T09:40:30;23.50;44.70
6824;DHT22;58633;49.470;11.004;2023-07-13T09:45:34;23.80;44.90
6824;DHT22;58633;49.470;11.004;2023-07-13T09:48:13;23.80;41.20
6824;DHT22;58633;49.470;11.004;2023-07-13T09:50:39;23.80;41.90
6824;DHT22;58633;49.470;11.004;2023-07-13T09:53:14;23.80;42.10
6824;DHT22;58633;49.470;11.004;2023-07-13T09:55:42;24.10;42.60
6824;DHT22;58633;49.470;11.004;2023-07-13T09:58:20;25.70;43.90
6824;DHT22;58633;49.470;11.004;2023-07-13T10:00:59;24.10;42.70
6824;DHT22;58633;49.470;11.004;2023-07-13T10:03:34;24.10;43.20
6824;DHT22;58633;49.470;11.004;2023-07-13T10:06:18;24.30;43.10
6824;DHT22;58633;49.470;11.004;2023-07-13T10:08:45;24.30;43.70
6824;DHT22;58633;49.470;11.004;2023-07-13T10:11:24;24.50;40.50
6824;DHT22;58633;49.470;11.004;2023-07-13T10:13:56;24.60;40.40
6824;DHT22;58633;49.470;11.004;2023-07-13T10:16:25;24.60;39.40
6824;DHT22;58633;49.470;11.004;2023-07-13T10:18:55;24.60;40.10
6824;DHT22;58633;49.470;11.004;2023-07-13T10:21:26;24.80;41.00
6824;DHT22;58633;49.470;11.004;2023-07-13T10:23:56;24.60;39.40
6824;DHT22;58633;49.470;11.004;2023-07-13T10:26:29;24.70;39.40
6824;DHT22;58633;49.470;11.004;2023-07-13T10:28:59;24.90;38.70
6824;DHT22;58633;49.470;11.004;2023-07-13T10:31:26;27.60;41.30
6824;DHT22;58633;49.470;11.004;2023-07-13T10:33:51;24.90;39.30
6824;DHT22;58633;49.470;11.004;2023-07-13T10:36:28;24.90;40.10
6824;DHT22;58633;49.470;11.004;2023-07-13T10:38:55;24.90;39.80
6824;DHT22;58633;49.470;11.004;2023-07-13T10:41:24;25.00;39.80
6824;DHT22;58633;49.470;11.004;2023-07-13T10:43:52;25.20;40.30
6824;DHT22;58633;49.470;11.004;2023-07-13T10:46:25;25.10;40.70
6824;DHT22;58633;49.470;11.004;2023-07-13T10:49:03;25.30;39.50
6824;DHT22;58633;49.470;11.004;2023-07-13T10:54:14;25.40;39.20
6824;DHT22;58633;49.470;11.004;2023-07-13T10:59:17;25.30;39.90
6824;DHT22;58633;49.470;11.004;2023-07-13T11:01:57;25.30;40.40
6824;DHT22;58633;49.470;11.004;2023-07-13T11:04:25;25.30;40.40
6824;DHT22;58633;49.470;11.004;2023-07-13T11:06:57;25.30;40.20
6824;DHT22;58633;49.470;11.004;2023-07-13T11:09:38;25.40;40.30
6824;DHT22;58633;49.470;11.004;2023-07-13T11:15:10;25.50;39.80
6824;DHT22;58633;49.470;11.004;2023-07-13T11:17:51;25.70;39.40
6824;DHT22;58633;49.470;11.004;2023-07-13T11:20:35;25.80;39.90
6824;DHT22;58633;49.470;11.004;2023-07-13T11:38:39;26.00;39.30
6824;DHT22;58633;49.470;11.004;2023-07-13T11:41:21;26.00;39.80
6824;DHT22;58633;49.470;11.004;2023-07-13T11:43:49;25.90;37.90
6824;DHT22;58633;49.470;11.004;2023-07-13T11:46:26;26.00;38.50
6824;DHT22;58633;49.470;11.004;2023-07-13T11:48:53;26.10;38.30
6824;DHT22;58633;49.470;11.004;2023-07-13T11:51:22;26.10;38.60
6824;DHT22;58633;49.470;11.004;2023-07-13T11:53:50;26.10;38.60
6824;DHT22;58633;49.470;11.004;2023-07-13T11:56:17;26.10;38.70
6824;DHT22;58633;49.470;11.004;2023-07-13T11:58:43;25.90;38.70
6824;DHT22;58633;49.470;11.004;2023-07-13T12:01:30;26.10;38.80
6824;DHT22;58633;49.470;11.004;2023-07-13T12:04:00;25.80;38.90
6824;DHT22;58633;49.470;11.004;2023-07-13T12:06:34;25.90;39.50
6824;DHT22;58633;49.470;11.004;2023-07-13T12:09:12;26.10;39.30
6824;DHT22;58633;49.470;11.004;2023-07-13T12:14:18;26.30;39.80
6824;DHT22;58633;49.470;11.004;2023-07-13T12:16:45;26.50;40.30
6824;DHT22;58633;49.470;11.004;2023-07-13T12:19:23;26.70;40.00
6824;DHT22;58633;49.470;11.004;2023-07-13T12:21:52;26.50;39.80
6824;DHT22;58633;49.470;11.004;2023-07-13T12:24:20;26.70;40.40
6824;DHT22;58633;49.470;11.004;2023-07-13T12:26:52;26.50;40.60
6824;DHT22;58633;49.470;11.004;2023-07-13T12:29:18;26.40;39.50
6824;DHT22;58633;49.470;11.004;2023-07-13T12:31:46;26.40;39.40
6824;DHT22;58633;49.470;11.004;2023-07-13T12:34:19;26.40;39.30
6824;DHT22;58633;49.470;11.004;2023-07-13T12:36:56;26.30;39.20
6824;DHT22;58633;49.470;11.004;2023-07-13T12:39:35;26.40;39.70
6824;DHT22;58633;49.470;11.004;2023-07-13T12:42:27;26.50;38.70
6824;DHT22;58633;49.470;11.004;2023-07-13T12:45:41;26.40;39.00
6824;DHT22;58633;49.470;11.004;2023-07-13T12:47:43;26.40;38.50
6824;DHT22;58633;49.470;11.004;2023-07-13T12:50:21;26.30;38.70
6824;DHT22;58633;49.470;11.004;2023-07-13T12:52:56;26.50;38.90
6824;DHT22;58633;49.470;11.004;2023-07-13T12:57:56;26.60;37.80
6824;DHT22;58633;49.470;11.004;2023-07-13T13:00:35;26.50;37.90
6824;DHT22;58633;49.470;11.004;2023-07-13T13:03:13;26.50;38.00
6824;DHT22;58633;49.470;11.004;2023-07-13T13:08:11;26.60;38.20
6824;DHT22;58633;49.470;11.004;2023-07-13T13:15:28;26.70;38.40
6824;DHT22;58633;49.470;11.004;2023-07-13T13:20:21;26.80;38.70
6824;DHT22;58633;49.470;11.004;2023-07-13T13:22:47;26.70;38.70
6824;DHT22;58633;49.470;11.004;2023-07-13T13:25:14;26.70;38.40
6824;DHT22;58633;49.470;11.004;2023-07-13T13:27:42;26.90;38.20
6824;DHT22;58633;49.470;11.004;2023-07-13T13:30:16;26.70;38.10
6824;DHT22;58633;49.470;11.004;2023-07-13T13:32:44;26.80;38.10
6824;DHT22;58633;49.470;11.004;2023-07-13T13:35:14;26.90;38.30
6824;DHT22;58633;49.470;11.004;2023-07-13T13:37:40;27.10;37.80
6824;DHT22;58633;49.470;11.004;2023-07-13T13:40:18;27.30;37.20
6824;DHT22;58633;49.470;11.004;2023-07-13T13:42:44;27.10;36.90
6824;DHT22;58633;49.470;11.004;2023-07-13T13:45:10;27.10;37.40
6824;DHT22;58633;49.470;11.004;2023-07-13T13:50:19;27.30;36.90
6824;DHT22;58633;49.470;11.004;2023-07-13T13:52:45;27.70;36.90
6824;DHT22;58633;49.470;11.004;2023-07-13T13:55:16;27.80;36.50
6824;DHT22;58633;49.470;11.004;2023-07-13T14:00:10;27.80;36.20
6824;DHT22;58633;49.470;11.004;2023-07-13T14:02:40;27.90;36.20
6824;DHT22;58633;49.470;11.004;2023-07-13T14:05:09;27.90;35.70
6824;DHT22;58633;49.470;11.004;2023-07-13T14:07:37;27.70;35.70
6824;DHT22;58633;49.470;11.004;2023-07-13T14:10:12;27.70;36.20
6824;DHT22;58633;49.470;11.004;2023-07-13T14:12:38;27.80;36.20
6824;DHT22;58633;49.470;11.004;2023-07-13T14:15:04;27.90;35.80
6824;DHT22;58633;49.470;11.004;2023-07-13T14:24:53;28.60;35.00
6824;DHT22;58633;49.470;11.004;2023-07-13T14:27:19;28.70;34.60
6824;DHT22;58633;49.470;11.004;2023-07-13T14:29:45;29.00;34.10
6824;DHT22;58633;49.470;11.004;2023-07-13T14:32:12;34.00;37.00
6824;DHT22;58633;49.470;11.004;2023-07-13T14:34:38;29.00;33.40
6824;DHT22;58633;49.470;11.004;2023-07-13T14:37:04;29.00;33.90
6824;DHT22;58633;49.470;11.004;2023-07-13T14:39:31;28.70;34.10
6824;DHT22;58633;49.470;11.004;2023-07-13T14:44:28;28.80;33.40
6824;DHT22;58633;49.470;11.004;2023-07-13T14:46:55;29.10;33.60
6824;DHT22;58633;49.470;11.004;2023-07-13T14:49:30;29.40;34.40
6824;DHT22;58633;49.470;11.004;2023-07-13T14:51:59;29.60;34.00
6824;DHT22;58633;49.470;11.004;2023-07-13T14:54:25;29.50;33.50
6824;DHT22;58633;49.470;11.004;2023-07-13T14:56:51;29.40;33.60
6824;DHT22;58633;49.470;11.004;2023-07-13T14:59:16;29.40;33.50
6824;DHT22;58633;49.470;11.004;2023-07-13T15:01:45;30.90;34.30
6824;DHT22;58633;49.470;11.004;2023-07-13T15:06:54;29.50;32.50
6824;DHT22;58633;49.470;11.004;2023-07-13T15:09:20;29.50;32.30
6824;DHT22;58633;49.470;11.004;2023-07-13T15:11:45;29.60;33.60
6824;DHT22;58633;49.470;11.004;2023-07-13T15:14:11;29.60;33.00
6824;DHT22;58633;49.470;11.004;2023-07-13T15:16:37;29.60;32.60
6824;DHT22;58633;49.470;11.004;2023-07-13T15:19:02;29.60;32.80
6824;DHT22;58633;49.470;11.004;2023-07-13T15:21:28;29.70;32.20
6824;DHT22;58633;49.470;11.004;2023-07-13T15:24:00;29.60;32.10
6824;DHT22;58633;49.470;11.004;2023-07-13T15:26:26;29.80;32.10
6824;DHT22;58633;49.470;11.004;2023-07-13T15:28:51;29.70;31.70
6824;DHT22;58633;49.470;11.004;2023-07-13T15:31:21;29.80;31.80
6824;DHT22;58633;49.470;11.004;2023-07-13T15:33:48;29.70;31.80
6824;DHT22;58633;49.470;11.004;2023-07-13T15:36:16;29.80;32.00
6824;DHT22;58633;49.470;11.004;2023-07-13T15:38:43;29.80;32.20
6824;DHT22;58633;49.470;11.004;2023-07-13T15:41:22;30.00;32.10
6824;DHT22;58633;49.470;11.004;2023-07-13T15:43:49;29.70;32.40
6824;DHT22;58633;49.470;11.004;2023-07-13T15:46:17;31.60;33.50
6824;DHT22;58633;49.470;11.004;2023-07-13T15:51:15;29.50;32.40
6824;DHT22;58633;49.470;11.004;2023-07-13T15:53:43;30.40;33.90
6824;DHT22;58633;49.470;11.004;2023-07-13T15:56:18;29.50;32.90
6824;DHT22;58633;49.470;11.004;2023-07-13T15:58:44;29.40;32.80
6824;DHT22;58633;49.470;11.004;2023-07-13T16:01:10;29.30;32.70
6824;DHT22;58633;49.470;11.004;2023-07-13T16:06:02;29.20;32.70
6824;DHT22;58633;49.470;11.004;2023-07-13T16:08:31;29.30;32.90
6824;DHT22;58633;49.470;11.004;2023-07-13T16:10:58;29.40;33.10
6824;DHT22;58633;49.470;11.004;2023-07-13T16:13:24;29.50;33.10
6824;DHT22;58633;49.470;11.004;2023-07-13T16:15:51;29.50;33.40
6824;DHT22;58633;49.470;11.004;2023-07-13T16:18:17;29.70;32.40
6824;DHT22;58633;49.470;11.004;2023-07-13T16:20:45;33.00;34.90
6824;DHT22;58633;49.470;11.004;2023-07-13T16:23:12;29.70;32.60
6824;DHT22;58633;49.470;11.004;2023-07-13T16:25:40;29.60;32.30
6824;DHT22;58633;49.470;11.004;2023-07-13T16:28:06;29.40;32.30
6824;DHT22;58633;49.470;11.004;2023-07-13T16:30:32;29.20;34.60
6824;DHT22;58633;49.470;11.004;2023-07-13T16:33:03;29.00;34.00
6824;DHT22;58633;49.470;11.004;2023-07-13T16:35:34;29.20;33.60
6824;DHT22;58633;49.470;11.004;2023-07-13T16:38:01;29.30;33.50
6824;DHT22;58633;49.470;11.004;2023-07-13T16:40:30;29.10;33.60
6824;DHT22;58633;49.470;11.004;2023-07-13T16:42:57;29.20;33.00
6824;DHT22;58633;49.470;11.004;2023-07-13T16:45:29;29.20;33.70
6824;DHT22;58633;49.470;11.004;2023-07-13T16:48:12;29.00;33.30
6824;DHT22;58633;49.470;11.004;2023-07-13T16:50:38;28.90;33.20
6824;DHT22;58633;49.470;11.004;2023-07-13T16:53:20;30.00;34.50
6824;DHT22;58633;49.470;11.004;2023-07-13T16:55:47;28.60;33.20
6824;DHT22;58633;49.470;11.004;2023-07-13T16:58:13;28.60;33.40
6824;DHT22;58633;49.470;11.004;2023-07-13T17:00:38;28.60;34.20
6824;DHT22;58633;49.470;11.004;2023-07-13T17:03:05;28.70;33.70
6824;DHT22;58633;49.470;11.004;2023-07-13T17:05:41;28.60;33.80
6824;DHT22;58633;49.470;11.004;2023-07-13T17:08:20;28.70;34.60
6824;DHT22;58633;49.470;11.004;2023-07-13T17:10:51;28.50;34.10
6824;DHT22;58633;49.470;11.004;2023-07-13T17:15:50;28.40;34.00
6824;DHT22;58633;49.470;11.004;2023-07-13T17:20:45;28.30;33.90
6824;DHT22;58633;49.470;11.004;2023-07-13T17:23:15;28.20;35.20
6824;DHT22;58633;49.470;11.004;2023-07-13T17:25:42;28.20;34.70
6824;DHT22;58633;49.470;11.004;2023-07-13T17:28:08;28.20;34.40
6824;DHT22;58633;49.470;11.004;2023-07-13T17:30:35;28.10;34.90
6824;DHT22;58633;49.470;11.004;2023-07-13T17:35:31;28.00;34.60
6824;DHT22;58633;49.470;11.004;2023-07-13T17:38:00;28.20;35.30
6824;DHT22;58633;49.470;11.004;2023-07-13T17:40:27;31.20;37.30
6824;DHT22;58633;49.470;11.004;2023-07-13T17:42:53;28.00;35.50
6824;DHT22;58633;49.470;11.004;2023-07-13T17:45:23;28.00;34.90
6824;DHT22;58633;49.470;11.004;2023-07-13T17:47:50;28.00;35.40
6824;DHT22;58633;49.470;11.004;2023-07-13T17:50:26;27.90;36.00
6824;DHT22;58633;49.470;11.004;2023-07-13T17:53:01;27.90;35.40
6824;DHT22;58633;49.470;11.004;2023-07-13T17:55:28;27.90;35.40
6824;DHT22;58633;49.470;11.004;2023-07-13T18:00:21;27.60;34.90
6824;DHT22;58633;49.470;11.004;2023-07-13T18:02:58;27.60;35.30
6824;DHT22;58633;49.470;11.004;2023-07-13T18:05:29;27.40;34.90
6824;DHT22;58633;49.470;11.004;2023-07-13T18:10:21;27.20;35.00
6824;DHT22;58633;49.470;11.004;2023-07-13T18:12:50;27.10;35.30
6824;DHT22;58633;49.470;11.004;2023-07-13T18:15:17;27.10;35.80
6824;DHT22;58633;49.470;11.004;2023-07-13T18:17:47;27.20;35.90
6824;DHT22;58633;49.470;11.004;2023-07-13T18:20:22;30.40;38.10
6824;DHT22;58633;49.470;11.004;2023-07-13T18:22:49;27.10;35.70
6824;DHT22;58633;49.470;11.004;2023-07-13T18:25:22;27.00;35.70
6824;DHT22;58633;49.470;11.004;2023-07-13T18:27:48;27.00;36.30
6824;DHT22;58633;49.470;11.004;2023-07-13T18:30:15;27.00;36.10
6824;DHT22;58633;49.470;11.004;2023-07-13T18:32:50;26.80;36.00
6824;DHT22;58633;49.470;11.004;2023-07-13T18:35:34;26.90;36.60
6824;DHT22;58633;49.470;11.004;2023-07-13T18:42:54;26.80;36.40
6824;DHT22;58633;49.470;11.004;2023-07-13T18:45:21;26.80;38.40
6824;DHT22;58633;49.470;11.004;2023-07-13T18:47:55;26.70;39.70
6824;DHT22;58633;49.470;11.004;2023-07-13T18:50:27;26.70;40.50
6824;DHT22;58633;49.470;11.004;2023-07-13T18:52:53;26.50;40.00
6824;DHT22;58633;49.470;11.004;2023-07-13T18:55:24;26.50;40.40
6824;DHT22;58633;49.470;11.004;2023-07-13T19:00:21;26.40;40.80
6824;DHT22;58633;49.470;11.004;2023-07-13T19:02:54;26.60;42.00
6824;DHT22;58633;49.470;11.004;2023-07-13T19:05:23;26.30;41.80
6824;DHT22;58633;49.470;11.004;2023-07-13T19:10:17;26.20;42.70
6824;DHT22;58633;49.470;11.004;2023-07-13T19:12:46;26.10;42.80
6824;DHT22;58633;49.470;11.004;2023-07-13T19:15:30;26.10;42.90
6824;DHT22;58633;49.470;11.004;2023-07-13T19:18:01;26.00;43.60
6824;DHT22;58633;49.470;11.004;2023-07-13T19:20:30;26.00;44.10
6824;DHT22;58633;49.470;11.004;2023-07-13T19:23:01;25.90;43.10
6824;DHT22;58633;49.470;11.004;2023-07-13T19:25:28;25.80;42.90
6824;DHT22;58633;49.470;11.004;2023-07-13T19:28:26;25.80;41.80
6824;DHT22;58633;49.470;11.004;2023-07-13T19:38:15;25.40;42.60
6824;DHT22;58633;49.470;11.004;2023-07-13T19:43:15;25.50;42.80
6824;DHT22;58633;49.470;11.004;2023-07-13T19:48:07;25.50;43.60
6824;DHT22;58633;49.470;11.004;2023-07-13T19:50:33;26.60;44.90
6824;DHT22;58633;49.470;11.004;2023-07-13T19:53:00;25.40;43.50
6824;DHT22;58633;49.470;11.004;2023-07-13T19:55:27;25.40;43.20
6824;DHT22;58633;49.470;11.004;2023-07-13T19:57:54;25.40;42.60
6824;DHT22;58633;49.470;11.004;2023-07-13T20:00:25;25.40;42.50
6824;DHT22;58633;49.470;11.004;2023-07-13T20:05:19;25.50;43.80